KLUK/LUK METAR and TAF weather

Enter ICAO airport designator
Station Type Date Time Source
KLUK METAR 2020/11/28 19:53 UTC NOAA

KLUK 281953Z 14003KT 10SM CLR 09/M01 A3020 RMK AO2 SLP226 T00941006


Station Type Date Time Source
KLUK Decoded METAR 2020/11/28 19:53 UTC NOAA

CINCINNATI MUN LUNKEN FLD, OH, United States (KLUK) 39-06N 84-25W 155M
Nov 28, 2020 - 02:53 PM EST / 2020.11.28 1953 UTC
Wind: from the SE (140 degrees) at 3 MPH (3 KT):0
Visibility: 10 mile(s):0
Sky conditions: clear
Temperature: 48.9 F (9.4 C)
Dew Point: 30.9 F (-0.6 C)
Relative Humidity: 49%
Pressure (altimeter): 30.2 in. Hg (1022 hPa)
ob: KLUK 281953Z 14003KT 10SM CLR 09/M01 A3020 RMK AO2 SLP226 T00941006
cycle: 20

Station Type Date Time Source
KLUK TAF 2020/11/28 18:22 UTC NOAA

TAF KLUK 281720Z 2818/2918 26004KT P6SM FEW025
FM282100 23004KT P6SM SKC
FM290000 00000KT P6SM SKC
FM291400 16004KT P6SM SCT250

Example: see airport list